Time;durP1;ratioP1;P1;durP2;ratioP2;P2;SDS_P1;SDS_P2;PMS_P1;PMS_P2;Temp;Humidity;BMP_temperature;BMP_pressure;BME280_temperature;BME280_humidity;BME280_pressure;Samples;Min_cycle;Max_cycle;Signal;HPM_P1;HPM_P2
2022/03/14 00:01:03;;;;;;;5.80;2.72;;;;;;;0.16;68.72;100221.97;5027562;28;20527;-81
2022/03/14 00:03:42;;;;;;;5.43;2.95;;;;;;;0.08;69.14;100227.50;5046031;28;20049;-83
2022/03/14 00:06:10;;;;;;;5.75;3.42;;;;;;;0.01;69.79;100223.81;5048446;28;20159;-82
2022/03/14 00:08:40;;;;;;;5.68;3.05;;;;;;;-0.01;70.18;100217.75;5029692;28;20036;-83
2022/03/14 00:11:06;;;;;;;4.90;3.28;;;;;;;-0.07;70.50;100222.56;5034886;28;20045;-81
2022/03/14 00:13:32;;;;;;;5.63;2.97;;;;;;;-0.08;71.13;100211.50;5037661;28;20033;-81
2022/03/14 00:15:59;;;;;;;6.70;3.42;;;;;;;-0.15;71.39;100221.31;5047927;28;20063;-81
2022/03/14 00:18:26;;;;;;;;;;;;;;;-0.10;71.50;100217.31;5040582;28;20439;-81
2022/03/14 00:20:51;;;;;;;;;;;;;;;-0.05;71.59;100218.41;5053598;28;19916;-82
2022/03/14 00:23:19;;;;;;;6.18;3.38;;;;;;;-0.02;71.87;100210.91;5054604;28;19917;-81
2022/03/14 00:25:47;;;;;;;7.40;3.72;;;;;;;-0.08;72.11;100205.53;5044303;28;20067;-80
2022/03/14 00:28:13;;;;;;;6.13;3.20;;;;;;;-0.10;72.55;100196.91;5049393;28;20156;-81
2022/03/14 00:30:39;;;;;;;5.70;3.40;;;;;;;-0.10;72.83;100215.63;5054059;28;20127;-81
2022/03/14 00:33:04;;;;;;;6.05;3.10;;;;;;;-0.09;72.75;100207.19;5053045;28;20040;-81
2022/03/14 00:35:30;;;;;;;5.25;2.85;;;;;;;-0.07;73.01;100210.69;5054408;28;20506;-80
2022/03/14 00:37:56;;;;;;;6.40;3.75;;;;;;;-0.06;73.02;100209.00;5052905;28;20064;-80
2022/03/14 00:40:21;;;;;;;6.18;3.22;;;;;;;-0.05;73.57;100210.75;5052789;28;20040;-81
2022/03/14 00:42:48;;;;;;;6.55;3.55;;;;;;;-0.04;73.60;100208.28;5043404;28;20073;-82
2022/03/14 00:45:14;;;;;;;6.88;3.13;;;;;;;-0.07;73.71;100207.25;5035441;28;20095;-81
2022/03/14 00:47:40;;;;;;;7.82;3.15;;;;;;;-0.03;73.96;100212.56;5016441;28;20093;-81
2022/03/14 00:50:06;;;;;;;6.95;2.88;;;;;;;-0.02;74.07;100205.78;5032582;28;20463;-81
2022/03/14 00:52:33;;;;;;;7.75;3.42;;;;;;;-0.15;73.98;100193.28;5032575;28;20033;-82
2022/03/14 00:54:58;;;;;;;6.97;3.65;;;;;;;-0.13;74.57;100190.00;5016601;28;20068;-81
2022/03/14 00:57:24;;;;;;;5.82;2.80;;;;;;;-0.01;74.04;100197.34;5032504;28;20029;-82
2022/03/14 00:59:50;;;;;;;4.35;3.20;;;;;;;-0.08;73.97;100197.88;5032543;28;20067;-82
2022/03/14 01:02:16;;;;;;;6.13;3.20;;;;;;;-0.08;74.10;100198.75;5045678;28;20056;-82
2022/03/14 01:04:42;;;;;;;6.65;3.55;;;;;;;-0.11;74.01;100187.50;5053787;28;20461;-81
2022/03/14 01:07:08;;;;;;;5.07;3.28;;;;;;;-0.10;74.30;100196.91;5053393;28;20044;-81
2022/03/14 01:09:33;;;;;;;4.82;3.00;;;;;;;-0.12;73.89;100196.84;5052196;28;20036;-81
2022/03/14 01:11:59;;;;;;;6.55;3.40;;;;;;;-0.09;73.95;100196.09;5053366;28;20541;-82
2022/03/14 01:14:25;;;;;;;5.13;3.30;;;;;;;-0.07;73.65;100197.94;5020054;28;20102;-81
2022/03/14 01:16:51;;;;;;;6.93;3.20;;;;;;;-0.08;74.05;100196.19;5012368;28;20068;-81
2022/03/14 01:19:18;;;;;;;6.63;3.10;;;;;;;0.00;73.53;100191.47;5005458;28;20042;-81
2022/03/14 01:21:45;;;;;;;4.72;3.05;;;;;;;0.06;73.01;100195.97;5045849;28;20029;-81
2022/03/14 01:24:10;;;;;;;7.75;3.90;;;;;;;0.10;72.77;100195.31;5027296;28;20045;-83
2022/03/14 01:26:37;;;;;;;6.57;3.38;;;;;;;0.09;72.79;100206.28;5035919;28;20044;-81
2022/03/14 01:29:03;;;;;;;5.75;3.10;;;;;;;0.12;72.59;100203.88;5023848;28;20060;-81
2022/03/14 01:31:29;;;;;;;6.10;3.70;;;;;;;0.01;72.62;100195.75;5053210;28;20762;-82
2022/03/14 01:33:55;;;;;;;5.10;3.05;;;;;;;-0.04;72.84;100197.22;5020151;28;20044;-81
2022/03/14 01:36:21;;;;;;;6.32;3.25;;;;;;;0.00;72.93;100196.56;5035595;28;20037;-82
2022/03/14 01:38:47;;;;;;;4.63;2.85;;;;;;;0.04;72.66;100205.19;5051885;28;20086;-81
2022/03/14 01:41:18;;;;;;;7.88;3.50;;;;;;;0.03;72.56;100203.47;5053161;28;20029;-81
2022/03/14 01:43:44;;;;;;;6.55;3.38;;;;;;;0.04;72.33;100200.09;5035432;28;20044;-81
2022/03/14 01:46:10;;;;;;;;;;;;;;;0.02;72.54;100206.81;5052533;28;20047;-82
2022/03/14 01:48:35;;;;;;;4.57;3.13;;;;;;;0.06;72.08;100208.72;5040018;28;19917;-82
2022/03/14 01:51:01;;;;;;;4.57;3.00;;;;;;;-0.03;72.48;100198.97;5033154;28;20546;-81
2022/03/14 01:53:27;;;;;;;5.43;3.17;;;;;;;0.04;72.53;100200.09;5051678;28;20040;-80
2022/03/14 01:55:52;;;;;;;4.70;3.00;;;;;;;0.09;72.14;100208.84;5018499;28;20522;-80
2022/03/14 01:58:18;;;;;;;5.43;3.33;;;;;;;0.04;71.79;100208.63;5051320;28;20137;-79
2022/03/14 02:00:44;;;;;;;6.43;3.08;;;;;;;0.02;72.24;100204.28;5052550;28;20053;-81
2022/03/14 02:03:10;;;;;;;6.00;3.28;;;;;;;0.03;72.12;100199.22;5051772;28;20128;-82
2022/03/14 02:05:37;;;;;;;5.82;3.63;;;;;;;0.08;71.74;100204.53;5052869;28;20068;-81
2022/03/14 02:08:05;;;;;;;6.00;3.13;;;;;;;0.06;71.76;100208.72;5017491;28;20041;-82
2022/03/14 02:10:30;;;;;;;5.82;3.38;;;;;;;0.15;71.32;100211.69;5041808;28;20060;-82
2022/03/14 02:12:56;;;;;;;7.45;3.40;;;;;;;0.17;71.46;100212.63;5051681;28;20495;-80
2022/03/14 02:15:22;;;;;;;4.53;3.20;;;;;;;0.17;71.27;100207.53;5052842;28;20466;-81
2022/03/14 02:17:48;;;;;;;7.75;3.03;;;;;;;0.19;71.21;100213.59;5039405;28;20041;-81
2022/03/14 02:20:14;;;;;;;5.55;3.25;;;;;;;0.17;71.07;100212.63;5038937;28;20033;-80
2022/03/14 02:22:39;;;;;;;5.65;3.15;;;;;;;0.20;71.01;100207.66;5042049;28;20627;-81
2022/03/14 02:25:09;;;;;;;4.85;3.38;;;;;;;0.23;70.86;100213.78;5055287;28;20043;-82
2022/03/14 02:27:36;;;;;;;5.43;3.30;;;;;;;0.22;71.04;100204.38;5056152;28;20049;-82
2022/03/14 02:30:03;;;;;;;5.07;3.40;;;;;;;0.20;70.67;100207.66;5049543;28;20484;-81
2022/03/14 02:32:28;;;;;;;5.15;2.97;;;;;;;0.19;70.73;100211.03;5048464;28;20040;-80
2022/03/14 02:34:54;;;;;;;6.63;3.95;;;;;;;0.16;70.46;100210.88;5054744;28;20587;-79
2022/03/14 02:37:20;;;;;;;5.60;3.65;;;;;;;0.17;70.75;100207.53;5038784;28;20045;-81
2022/03/14 02:39:47;;;;;;;6.40;3.00;;;;;;;0.21;70.91;100205.19;5055121;28;20043;-81
2022/03/14 02:42:13;;;;;;;6.10;3.50;;;;;;;0.28;70.60;100208.91;5055664;28;20040;-81
2022/03/14 02:44:41;;;;;;;6.88;3.60;;;;;;;0.21;70.58;100206.84;5055013;28;20503;-83
2022/03/14 02:47:08;;;;;;;4.80;3.00;;;;;;;0.29;70.26;100205.53;5054990;28;20123;-82
2022/03/14 02:49:34;;;;;;;7.25;3.53;;;;;;;0.27;69.78;100198.59;5055053;28;20040;-81
2022/03/14 02:52:00;;;;;;;5.60;3.08;;;;;;;0.27;70.18;100209.69;5035293;28;20041;-80
2022/03/14 02:54:26;;;;;;;;;;;;;;;0.28;69.87;100203.78;5044256;28;20032;-81
2022/03/14 02:56:52;;;;;;;6.87;3.70;;;;;;;0.25;70.17;100204.53;5023950;28;20026;-80
2022/03/14 02:59:19;;;;;;;7.18;3.80;;;;;;;0.23;70.33;100201.03;5042048;28;20028;-80
2022/03/14 03:01:45;;;;;;;6.18;3.50;;;;;;;0.29;69.95;100200.44;5054513;28;20511;-80
2022/03/14 03:04:11;;;;;;;5.53;3.58;;;;;;;0.35;70.07;100197.28;5054363;28;20059;-83
2022/03/14 03:06:37;;;;;;;6.65;3.55;;;;;;;0.35;69.91;100200.69;5053976;28;20041;-82
2022/03/14 03:09:03;;;;;;;6.85;3.70;;;;;;;0.27;69.90;100199.47;5054053;28;20037;-82
2022/03/14 03:11:29;;;;;;;9.45;4.57;;;;;;;0.31;69.95;100190.28;5055509;28;20040;-83
2022/03/14 03:13:56;;;;;;;6.95;3.58;;;;;;;0.30;69.80;100197.06;5053334;28;20060;-80
2022/03/14 03:16:22;;;;;;;6.47;4.03;;;;;;;0.30;69.95;100189.41;5044982;28;20552;-82
2022/03/14 03:18:47;;;;;;;7.13;3.72;;;;;;;0.34;69.47;100198.97;5036490;28;20044;-83
2022/03/14 03:21:14;;;;;;;6.82;3.80;;;;;;;0.30;70.13;100191.97;5055171;28;20037;-81
2022/03/14 03:23:41;;;;;;;5.07;3.40;;;;;;;0.30;69.65;100188.53;5054211;28;20399;-80
2022/03/14 03:26:07;;;;;;;6.85;3.80;;;;;;;0.28;70.26;100185.94;5037295;28;20049;-81
2022/03/14 03:28:35;;;;;;;6.05;3.78;;;;;;;0.22;70.24;100183.97;5054142;28;20128;-81
2022/03/14 03:31:11;;;;;;;6.55;3.85;;;;;;;0.22;70.24;100189.06;5037963;28;20037;-82
2022/03/14 03:33:37;;;;;;;8.30;3.97;;;;;;;0.24;70.41;100194.25;5015987;28;20077;-81
2022/03/14 03:36:05;;;;;;;6.53;3.55;;;;;;;0.29;70.20;100197.00;5037377;28;20065;-81
2022/03/14 03:38:30;;;;;;;6.57;3.63;;;;;;;0.29;69.72;100179.16;5054858;28;20036;-83
2022/03/14 03:40:57;;;;;;;5.55;3.85;;;;;;;0.25;70.16;100188.34;5053899;28;20078;-81
2022/03/14 03:43:23;;;;;;;6.47;4.50;;;;;;;0.23;70.25;100188.28;5054822;28;20149;-79
2022/03/14 03:45:48;;;;;;;5.32;3.38;;;;;;;0.26;70.65;100184.97;5053729;28;20040;-84
2022/03/14 03:48:14;;;;;;;8.43;4.38;;;;;;;0.24;70.11;100181.50;5055974;28;20040;-82
2022/03/14 03:50:40;;;;;;;6.28;4.25;;;;;;;0.23;70.13;100184.84;5034772;28;20059;-80
2022/03/14 03:53:06;;;;;;;7.15;4.10;;;;;;;0.30;70.34;100186.00;5028464;28;20049;-81
2022/03/14 03:55:31;;;;;;;6.75;4.10;;;;;;;0.31;70.03;100188.59;5050217;28;20079;-81
2022/03/14 03:57:57;;;;;;;6.90;3.53;;;;;;;0.34;69.85;100186.19;5034883;28;20029;-81
2022/03/14 04:00:23;;;;;;;7.95;4.00;;;;;;;0.27;70.28;100189.28;5042291;28;20519;-81
2022/03/14 04:02:51;;;;;;;6.20;3.65;;;;;;;0.31;70.25;100180.09;5014960;28;20045;-81
2022/03/14 04:05:22;;;;;;;9.13;4.43;;;;;;;0.29;70.30;100177.47;5014882;28;20076;-83
2022/03/14 04:07:48;;;;;;;9.00;4.80;;;;;;;0.37;69.77;100188.03;5014860;28;20053;-82
2022/03/14 04:10:15;;;;;;;8.75;3.83;;;;;;;0.28;70.13;100193.59;5014860;28;20033;-82
2022/03/14 04:12:44;;;;;;;6.20;3.95;;;;;;;0.32;69.88;100187.81;5014778;28;20497;-81
2022/03/14 04:15:10;;;;;;;5.93;3.42;;;;;;;0.31;70.08;100190.28;5013593;28;20052;-83
2022/03/14 04:17:37;;;;;;;8.15;4.05;;;;;;;0.40;69.71;100198.34;4964635;28;20572;-80
2022/03/14 04:20:07;;;;;;;6.47;3.60;;;;;;;0.36;69.85;100193.91;5033241;28;20045;-81
2022/03/14 04:22:36;;;;;;;7.72;3.60;;;;;;;0.33;69.77;100188.69;4999434;28;20041;-81
2022/03/14 04:25:03;;;;;;;7.03;3.85;;;;;;;0.39;69.93;100199.16;5033110;28;20120;-80
2022/03/14 04:27:28;;;;;;;5.97;4.03;;;;;;;0.33;69.64;100193.81;4989441;28;20053;-80
2022/03/14 04:29:55;;;;;;;8.25;4.00;;;;;;;0.34;69.96;100185.34;5029827;28;20404;-82
2022/03/14 04:32:26;;;;;;;5.93;3.97;;;;;;;0.30;69.39;100174.09;5015324;28;20114;-81
2022/03/14 04:34:51;;;;;;;;;;;;;;;0.34;69.79;100177.69;5017488;28;20099;-80
2022/03/14 04:37:17;;;;;;;8.23;3.75;;;;;;;0.44;69.72;100167.94;5012964;28;19945;-81
2022/03/14 04:39:43;;;;;;;5.50;3.60;;;;;;;0.44;69.51;100178.16;5013201;28;20460;-81
2022/03/14 04:42:09;;;;;;;7.03;4.32;;;;;;;0.33;69.75;100181.91;5013975;28;20096;-81
2022/03/14 04:44:35;;;;;;;7.82;4.07;;;;;;;0.36;69.85;100182.03;5013149;28;20124;-80
2022/03/14 04:47:01;;;;;;;7.60;3.90;;;;;;;0.44;69.53;100185.81;4995026;28;20046;-80
2022/03/14 04:49:28;;;;;;;;;;;;;;;0.43;69.72;100194.28;5014799;28;20076;-81
2022/03/14 04:51:55;;;;;;;8.05;3.97;;;;;;;0.48;69.40;100194.47;5013363;28;20303;-81
2022/03/14 04:54:24;;;;;;;7.47;4.20;;;;;;;0.48;69.39;100189.38;5012916;28;20042;-81
2022/03/14 04:56:50;;;;;;;8.02;4.07;;;;;;;0.46;69.71;100181.66;5013187;28;20592;-81
2022/03/14 04:59:16;;;;;;;6.05;3.85;;;;;;;0.55;69.32;100187.94;5012759;28;20048;-80
2022/03/14 05:01:42;;;;;;;6.47;3.55;;;;;;;0.55;69.42;100190.50;5024454;28;20512;-81
2022/03/14 05:04:08;;;;;;;6.28;3.85;;;;;;;0.67;68.51;100191.06;5034304;28;20037;-81
2022/03/14 05:06:33;;;;;;;7.75;3.92;;;;;;;0.57;68.90;100181.25;5016479;28;20124;-81
2022/03/14 05:08:59;;;;;;;6.38;3.88;;;;;;;0.64;69.01;100180.69;5034015;28;20124;-81
2022/03/14 05:11:26;;;;;;;7.53;4.55;;;;;;;0.57;69.35;100188.91;5033371;28;20575;-82
2022/03/14 05:13:52;;;;;;;8.38;4.18;;;;;;;0.59;69.13;100197.50;5033590;28;20527;-82
2022/03/14 05:16:18;;;;;;;7.95;4.18;;;;;;;0.60;69.25;100194.16;5012900;28;20120;-81
2022/03/14 05:18:43;;;;;;;;;;;;;;;0.54;69.23;100192.19;5035253;28;20041;-82
2022/03/14 05:21:09;;;;;;;7.57;4.30;;;;;;;0.58;68.96;100190.66;5051948;28;19939;-82
2022/03/14 05:23:35;;;;;;;;;;;;;;;0.57;69.17;100194.00;5053355;28;20045;-80
2022/03/14 05:26:00;;;;;;;7.78;3.78;;;;;;;0.64;68.53;100203.66;5053035;28;20283;-83
2022/03/14 05:28:26;;;;;;;10.35;3.65;;;;;;;0.80;68.17;100198.44;5035697;28;20037;-82
2022/03/14 05:30:53;;;;;;;5.88;3.70;;;;;;;0.72;68.27;100197.22;5053610;28;20040;-80
2022/03/14 05:33:18;;;;;;;6.25;3.92;;;;;;;0.80;68.13;100195.03;5053295;28;20047;-81
2022/03/14 05:35:44;;;;;;;7.07;3.78;;;;;;;0.82;68.13;100199.38;5053150;28;20033;-81
2022/03/14 05:38:10;;;;;;;6.85;3.58;;;;;;;0.82;67.97;100201.91;5053320;28;20389;-81
2022/03/14 05:40:35;;;;;;;5.03;3.50;;;;;;;0.86;67.83;100197.84;5052976;28;20033;-82
2022/03/14 05:43:08;;;;;;;5.43;3.55;;;;;;;0.91;67.70;100192.09;5052532;28;20055;-81
2022/03/14 05:45:34;;;;;;;8.48;4.13;;;;;;;0.92;67.75;100198.97;5052332;28;20186;-81
2022/03/14 05:47:59;;;;;;;8.32;4.18;;;;;;;0.91;67.68;100198.91;5053089;28;20148;-81
2022/03/14 05:50:25;;;;;;;7.20;3.65;;;;;;;0.98;67.39;100191.56;5052347;28;20044;-81
2022/03/14 05:52:54;;;;;;;8.23;3.75;;;;;;;1.02;67.46;100193.44;5040882;28;20046;-80
2022/03/14 05:55:20;;;;;;;7.85;4.30;;;;;;;0.99;67.21;100190.75;5032309;28;20073;-81
2022/03/14 05:57:45;;;;;;;5.65;3.85;;;;;;;1.04;67.19;100183.28;5034413;28;20431;-83
2022/03/14 06:00:12;;;;;;;8.43;3.90;;;;;;;1.05;66.90;100182.47;5033445;28;20412;-81
2022/03/14 06:02:47;;;;;;;6.35;3.70;;;;;;;1.07;67.12;100182.56;5032134;28;20059;-82
2022/03/14 06:05:13;;;;;;;8.52;4.18;;;;;;;1.09;66.97;100178.38;5032075;28;20037;-81
2022/03/14 06:07:40;;;;;;;5.90;3.55;;;;;;;1.11;67.22;100185.31;5032368;28;20041;-81
2022/03/14 06:10:07;;;;;;;7.00;4.07;;;;;;;1.08;66.97;100191.97;5032135;28;20037;-82
2022/03/14 06:12:33;;;;;;;7.18;3.83;;;;;;;1.08;67.41;100190.28;5032390;28;20485;-82
2022/03/14 06:15:00;;;;;;;10.55;3.92;;;;;;;1.16;66.98;100188.94;5031984;28;20037;-82
2022/03/14 06:17:26;;;;;;;12.77;4.50;;;;;;;1.18;66.81;100194.09;4995520;28;20095;-82
2022/03/14 06:19:51;;;;;;;7.70;4.30;;;;;;;1.19;66.81;100188.16;5029014;28;20064;-81
2022/03/14 06:22:18;;;;;;;8.00;4.05;;;;;;;1.25;66.98;100203.78;5015084;28;20037;-80
2022/03/14 06:24:46;;;;;;;6.72;4.07;;;;;;;1.25;66.79;100202.09;5047844;28;20411;-81
2022/03/14 06:27:15;;;;;;;7.65;3.90;;;;;;;1.34;66.35;100193.94;5051551;28;20033;-82
2022/03/14 06:29:41;;;;;;;7.88;4.13;;;;;;;1.40;66.44;100194.16;5053020;28;20036;-80
2022/03/14 06:32:07;;;;;;;6.50;3.13;;;;;;;1.48;65.66;100186.81;5037349;28;20439;-81
2022/03/14 06:34:33;;;;;;;6.10;3.35;;;;;;;1.53;65.92;100195.56;5051611;28;20037;-82
2022/03/14 06:36:59;;;;;;;8.55;4.13;;;;;;;1.43;66.27;100191.75;5050996;28;20060;-82
2022/03/14 06:39:25;;;;;;;8.85;4.40;;;;;;;1.39;66.23;100195.00;5045522;28;20048;-82
2022/03/14 06:41:51;;;;;;;;;;;;;;;1.33;66.61;100187.06;5033681;28;20052;-81
2022/03/14 06:44:18;;;;;;;9.75;3.58;;;;;;;1.41;66.75;100188.25;5033532;28;19924;-80
2022/03/14 06:46:44;;;;;;;8.38;4.55;;;;;;;1.37;66.63;100183.81;5032934;28;20119;-80
2022/03/14 06:49:13;;;;;;;9.38;4.80;;;;;;;1.44;66.60;100190.06;5033614;28;20037;-82
2022/03/14 06:51:42;;;;;;;10.82;4.10;;;;;;;1.53;66.28;100186.19;5032884;28;20038;-82
2022/03/14 06:54:09;;;;;;;6.38;3.78;;;;;;;1.55;66.43;100187.94;5033194;28;20073;-81
2022/03/14 06:56:38;;;;;;;8.30;3.92;;;;;;;1.58;65.67;100177.84;5032016;28;20026;-81
2022/03/14 06:59:04;;;;;;;8.50;4.40;;;;;;;1.55;66.33;100180.25;5031550;28;20106;-81
2022/03/14 07:01:30;;;;;;;6.30;4.28;;;;;;;1.39;66.45;100182.22;5032793;28;20535;-82
2022/03/14 07:03:56;;;;;;;;;;;;;;;1.46;66.88;100183.31;5033071;28;20049;-81
2022/03/14 07:06:22;;;;;;;14.50;5.50;;;;;;;1.42;66.74;100187.44;5054213;28;20341;-82
2022/03/14 07:08:49;;;;;;;10.50;5.80;;;;;;;1.48;66.34;100174.91;5055057;28;20095;-81
2022/03/14 07:11:15;;;;;;;9.63;4.93;;;;;;;1.61;66.42;100183.09;5055124;28;20029;-82
2022/03/14 07:13:41;;;;;;;9.27;4.90;;;;;;;1.72;66.00;100186.94;5056884;28;20075;-82
2022/03/14 07:16:06;;;;;;;10.35;4.95;;;;;;;1.59;66.16;100184.69;5042733;28;20468;-81
2022/03/14 07:18:34;;;;;;;10.35;4.75;;;;;;;1.60;65.95;100181.31;5045742;28;20435;-82
2022/03/14 07:21:00;;;;;;;11.55;4.30;;;;;;;1.63;66.13;100178.88;5056471;28;20041;-81
2022/03/14 07:23:26;;;;;;;9.57;5.03;;;;;;;1.57;66.13;100188.88;5055698;28;20044;-82
2022/03/14 07:25:51;;;;;;;8.40;4.78;;;;;;;1.59;66.18;100200.91;5056376;28;20098;-80
2022/03/14 07:28:18;;;;;;;9.90;5.05;;;;;;;1.64;66.12;100198.53;5054631;28;20504;-81
2022/03/14 07:30:44;;;;;;;8.00;4.68;;;;;;;1.67;65.73;100191.84;5055159;28;20496;-83
2022/03/14 07:33:10;;;;;;;8.30;4.72;;;;;;;1.68;66.17;100190.16;5054467;28;20044;-80
2022/03/14 07:35:36;;;;;;;8.07;4.38;;;;;;;1.82;65.49;100193.28;5046060;28;20041;-80
2022/03/14 07:38:02;;;;;;;;;;;;;;;1.83;65.97;100185.66;5050184;28;20178;-82
2022/03/14 07:40:27;;;;;;;6.88;4.63;;;;;;;1.91;65.76;100189.38;5054543;28;19916;-81
2022/03/14 07:42:54;;;;;;;7.97;4.30;;;;;;;2.04;65.54;100196.72;5056082;28;20037;-81
2022/03/14 07:45:21;;;;;;;11.32;4.57;;;;;;;2.07;64.84;100184.88;5054805;28;20122;-81
2022/03/14 07:47:46;;;;;;;8.95;5.35;;;;;;;2.07;64.93;100177.19;5044444;28;20049;-82
2022/03/14 07:50:16;;;;;;;7.97;4.60;;;;;;;2.16;64.81;100191.22;5052537;28;20043;-81
2022/03/14 07:52:42;;;;;;;12.90;5.38;;;;;;;2.28;64.36;100181.41;5054631;28;20576;-82
2022/03/14 07:55:08;;;;;;;16.45;6.70;;;;;;;2.32;64.09;100182.41;5039965;28;20029;-82
2022/03/14 07:57:34;;;;;;;8.57;5.30;;;;;;;2.33;63.89;100173.91;5055793;28;20041;-81
2022/03/14 08:00:00;;;;;;;8.57;4.97;;;;;;;2.35;64.52;100172.28;5054749;28;20037;-80
2022/03/14 08:02:26;;;;;;;7.32;5.10;;;;;;;2.40;64.16;100170.78;5021165;28;20098;-81
2022/03/14 08:04:52;;;;;;;12.55;4.95;;;;;;;2.51;63.89;100174.59;5054177;28;20056;-82
2022/03/14 08:07:20;;;;;;;11.30;5.28;;;;;;;2.62;63.60;100169.88;5038947;28;20496;-82
2022/03/14 08:09:48;;;;;;;13.80;5.55;;;;;;;2.68;62.99;100174.31;5055386;28;20037;-82
2022/03/14 08:12:15;;;;;;;14.15;4.90;;;;;;;2.73;63.13;100171.09;5054225;28;20073;-80
2022/03/14 08:14:41;;;;;;;8.85;5.25;;;;;;;2.84;62.74;100166.38;5035115;28;20033;-83
2022/03/14 08:17:07;;;;;;;;;;;;;;;2.94;62.09;100175.25;5043491;28;20091;-82
2022/03/14 08:19:33;;;;;;;8.60;4.22;;;;;;;3.06;62.36;100173.97;5052123;28;20334;-81
2022/03/14 08:21:58;;;;;;;;;;;;;;;3.20;62.21;100174.44;5055228;28;20453;-81
2022/03/14 08:24:24;;;;;;;12.85;4.90;;;;;;;3.27;61.57;100162.69;5041352;28;19920;-81
2022/03/14 08:26:50;;;;;;;11.95;5.20;;;;;;;3.28;61.38;100172.13;5054479;28;20049;-81
2022/03/14 08:29:16;;;;;;;12.40;5.53;;;;;;;3.33;61.42;100174.84;5042399;28;20455;-81
2022/03/14 08:31:42;;;;;;;11.35;5.63;;;;;;;3.46;61.08;100172.72;5054202;28;20068;-83
2022/03/14 08:34:08;;;;;;;16.08;5.63;;;;;;;3.52;60.97;100175.47;5037113;28;20049;-82
2022/03/14 08:36:40;;;;;;;14.43;6.13;;;;;;;3.54;60.85;100171.28;5053460;28;20071;-82
2022/03/14 08:39:09;;;;;;;10.13;4.28;;;;;;;3.69;60.57;100173.47;5053465;28;20415;-81
2022/03/14 08:41:39;;;;;;;11.35;5.28;;;;;;;3.66;59.96;100173.34;5054666;28;20052;-81
2022/03/14 08:44:05;;;;;;;18.52;6.38;;;;;;;3.55;60.25;100177.28;5054851;28;20454;-84
2022/03/14 08:46:33;;;;;;;11.00;6.20;;;;;;;3.59;60.58;100174.00;5037078;28;20116;-81
2022/03/14 08:48:58;;;;;;;11.35;6.13;;;;;;;3.66;60.64;100175.06;5053246;28;20411;-81
2022/03/14 08:51:25;;;;;;;9.50;5.90;;;;;;;3.70;60.00;100176.91;5053813;28;20040;-85
2022/03/14 08:53:51;;;;;;;11.68;5.57;;;;;;;3.71;60.46;100182.09;5037065;28;20037;-82
2022/03/14 08:56:18;;;;;;;9.73;5.70;;;;;;;3.65;60.63;100179.31;5053299;28;20033;-81
2022/03/14 08:58:44;;;;;;;9.98;5.40;;;;;;;3.69;60.10;100173.47;5036391;28;20032;-81
2022/03/14 09:01:11;;;;;;;12.45;5.70;;;;;;;3.65;60.26;100175.88;5052911;28;20065;-83
2022/03/14 09:03:37;;;;;;;11.55;5.93;;;;;;;3.69;60.26;100175.16;5021184;28;20041;-84
2022/03/14 09:06:02;;;;;;;12.77;6.22;;;;;;;3.69;60.22;100182.88;5041240;28;20047;-83
2022/03/14 09:08:28;;;;;;;12.95;6.45;;;;;;;3.64;60.37;100180.16;5020620;28;20054;-82
2022/03/14 09:10:55;;;;;;;12.32;6.10;;;;;;;3.59;60.94;100171.44;5033034;28;20037;-81
2022/03/14 09:13:23;;;;;;;11.40;5.43;;;;;;;3.56;60.80;100172.19;5032925;28;20496;-82
2022/03/14 09:15:49;;;;;;;7.55;5.15;;;;;;;3.58;60.67;100177.41;5016737;28;20155;-81
2022/03/14 09:18:14;;;;;;;8.38;5.90;;;;;;;3.53;60.70;100173.81;5039173;28;20041;-82
2022/03/14 09:20:40;;;;;;;14.55;6.72;;;;;;;3.50;61.22;100179.72;5035836;28;20139;-81
2022/03/14 09:23:07;;;;;;;11.50;6.20;;;;;;;3.54;61.35;100179.00;5036770;28;20468;-82
2022/03/14 09:25:32;;;;;;;10.10;6.63;;;;;;;3.51;61.50;100172.88;5053698;28;20095;-82
2022/03/14 09:27:58;;;;;;;12.68;5.50;;;;;;;3.53;61.25;100169.56;5027017;28;20046;-81
2022/03/14 09:30:24;;;;;;;10.45;5.80;;;;;;;3.66;61.20;100175.06;5037449;28;20126;-81
2022/03/14 09:32:51;;;;;;;12.07;6.05;;;;;;;3.76;60.65;100182.25;5043554;28;20575;-81
2022/03/14 09:35:16;;;;;;;10.38;6.05;;;;;;;3.91;60.27;100162.19;5049865;28;20356;-82
2022/03/14 09:37:42;;;;;;;11.50;6.00;;;;;;;4.04;59.92;100176.25;5052989;28;20032;-81
2022/03/14 09:40:12;;;;;;;13.60;6.50;;;;;;;4.18;59.35;100171.53;5053386;28;20041;-80
2022/03/14 09:42:43;;;;;;;11.50;5.30;;;;;;;4.34;59.31;100169.44;5039482;28;20497;-82
2022/03/14 09:45:09;;;;;;;11.40;6.47;;;;;;;4.38;59.22;100159.28;5052757;28;20052;-82
2022/03/14 09:47:43;;;;;;;18.35;8.20;;;;;;;4.29;58.94;100165.88;5049297;28;20037;-82
2022/03/14 09:50:13;;;;;;;11.30;6.88;;;;;;;4.37;58.86;100170.38;5026840;28;20430;-83
2022/03/14 09:52:40;;;;;;;10.68;6.15;;;;;;;4.41;58.79;100165.38;5053064;28;20393;-82
2022/03/14 09:55:07;;;;;;;14.02;6.00;;;;;;;4.54;58.46;100162.34;5053490;28;20406;-82
2022/03/14 09:57:33;;;;;;;9.80;6.05;;;;;;;4.56;58.38;100165.81;5035788;28;20491;-82
2022/03/14 09:59:58;;;;;;;13.43;6.82;;;;;;;4.71;57.73;100164.47;5019169;28;20029;-82
2022/03/14 10:02:24;;;;;;;14.63;6.63;;;;;;;4.87;57.77;100171.78;5052183;28;20106;-81
2022/03/14 10:04:50;;;;;;;8.25;5.88;;;;;;;4.95;57.48;100172.88;5051711;28;20036;-82
2022/03/14 10:07:17;;;;;;;9.82;6.28;;;;;;;5.02;57.51;100167.03;5052128;28;20040;-81
2022/03/14 10:09:43;;;;;;;;;;;;;;;5.03;57.14;100168.78;5022466;28;20037;-82
2022/03/14 10:12:10;;;;;;;14.50;8.60;;;;;;;5.13;57.00;100169.03;5052246;28;20051;-86
2022/03/14 10:14:36;;;;;;;12.90;6.50;;;;;;;5.12;56.74;100172.44;5019555;28;20126;-82
2022/03/14 10:17:02;;;;;;;12.98;6.65;;;;;;;5.30;56.30;100170.31;5042905;28;20038;-81
2022/03/14 10:19:31;;;;;;;;;;;;;;;5.34;55.67;100175.59;5014405;28;20033;-82
2022/03/14 10:21:58;;;;;;;9.65;6.25;;;;;;;5.56;55.18;100156.41;5007991;28;19916;-83
2022/03/14 10:24:23;;;;;;;12.43;6.18;;;;;;;5.70;55.22;100163.59;5002845;28;20028;-83
2022/03/14 10:26:49;;;;;;;11.93;6.22;;;;;;;5.68;54.87;100157.50;5037485;28;20049;-83
2022/03/14 10:29:15;;;;;;;12.07;7.10;;;;;;;5.76;54.75;100158.56;5023420;28;20048;-82
2022/03/14 10:31:41;;;;;;;13.32;6.63;;;;;;;5.89;54.53;100167.44;5024391;28;20453;-81
2022/03/14 10:34:15;;;;;;;8.75;5.93;;;;;;;6.09;54.19;100164.53;5051408;28;20440;-81
2022/03/14 10:36:51;;;;;;;12.90;6.30;;;;;;;6.18;54.08;100162.97;5034692;28;20049;-82
2022/03/14 10:39:22;;;;;;;10.55;6.07;;;;;;;6.25;53.58;100154.56;5054165;28;20068;-84
2022/03/14 10:42:04;;;;;;;9.65;5.78;;;;;;;6.41;52.92;100160.88;5038847;28;20495;-83
2022/03/14 10:44:30;;;;;;;10.80;6.50;;;;;;;6.42;53.01;100157.50;5050127;28;20504;-81
2022/03/14 10:47:00;;;;;;;8.77;5.60;;;;;;;6.54;52.73;100145.69;5032134;28;20522;-82
2022/03/14 10:49:30;;;;;;;12.13;7.40;;;;;;;6.62;52.29;100151.88;5055839;28;20097;-82
2022/03/14 10:51:57;;;;;;;10.00;6.03;;;;;;;6.82;51.43;100159.13;5044168;28;20065;-82
2022/03/14 10:54:23;;;;;;;12.25;7.03;;;;;;;6.82;51.39;100149.66;5054513;28;20040;-82
2022/03/14 10:57:03;;;;;;;8.65;6.50;;;;;;;6.96;51.50;100134.44;5056961;28;20442;-82
2022/03/14 10:59:43;;;;;;;9.15;6.45;;;;;;;7.18;51.46;100147.72;5055080;28;20044;-83
2022/03/14 11:02:14;;;;;;;9.70;6.63;;;;;;;7.33;50.15;100143.72;5055380;28;20049;-82
2022/03/14 11:04:47;;;;;;;9.02;6.22;;;;;;;7.77;50.27;100145.25;5055223;28;20083;-81
2022/03/14 11:07:13;;;;;;;10.98;6.20;;;;;;;8.47;48.09;100138.47;5055914;28;20550;-82
2022/03/14 11:09:39;;;;;;;;;;;;;;;9.06;45.71;100133.06;5057051;28;20536;-82
2022/03/14 11:12:09;;;;;;;8.38;6.25;;;;;;;9.71;45.27;100138.78;5056044;28;19917;-81
2022/03/14 11:14:37;;;;;;;8.75;5.93;;;;;;;10.35;43.89;100131.41;5055370;28;20454;-82
2022/03/14 11:17:29;;;;;;;;;;;;;;;11.03;42.98;100137.66;5041658;28;20030;-81
2022/03/14 11:19:56;;;;;;;6.68;4.75;;;;;;;11.76;41.94;100129.88;5026293;28;19917;-83
2022/03/14 11:22:23;;;;;;;9.35;5.95;;;;;;;12.28;39.76;100124.59;5038770;28;20446;-82
2022/03/14 11:24:52;;;;;;;8.60;5.90;;;;;;;12.71;38.57;100117.44;5054742;28;20033;-81
2022/03/14 11:27:29;;;;;;;8.18;5.40;;;;;;;13.16;37.36;100117.19;5054169;28;20045;-82
2022/03/14 11:30:03;;;;;;;9.07;5.93;;;;;;;13.50;37.91;100112.56;5037591;28;20066;-84
2022/03/14 11:32:29;;;;;;;11.48;5.57;;;;;;;14.02;36.05;100104.25;5037402;28;20048;-82